Historique des mesures à Cassis (13260), France
Quotidien Résumé Juin 2, 2017 Unités:  US    Métrique   Métrique/US
« Précédent (Jour)
Suivant (Jour) »
Quotidien Hebdomadaire Mensuel Annuel Période au choix
  Maximum: Minimum: Moyenne:
Température: 32 °F 65.7 °F 72.5 °F
Point de rosée: 32 °F 60.1 °F 62.6 °F
Humidité: Humidity % 58 % 68 %
Vitesse du vent: WindSpeedKMH mph 0.0 mph 2.3 mph
Rafales: WindSpeedGustKMH mph - -
Vent:- - SE
Pression: 0 in 29.9 in -
Précipitations: 0 in    
Historical Graphs
 
 
Mesures pour : Juin 2, 2017
Heure Temperature Point de rosée Pression Vent Vitesse du vent Rafales Humidité Pluie (par heure) Conditions
32 °F 32 °F 0 in Calm     Humidity % 0 in SoftwareType W/m2
00:10 68.5 °F 60.6 °F 30 in Calm     76 % 0 in open2300-1.11 W/m2
01:10 67.8 °F 60.4 °F 30 in Calm     77 % 0 in open2300-1.11 W/m2
02:10 67.3 °F 60.3 °F 30 in Calm     78 % 0 in open2300-1.11 W/m2
03:10 66.9 °F 60.3 °F 30 in Calm     79 % 0 in open2300-1.11 W/m2
04:10 66.4 °F 60.1 °F 30 in NNW 3.2 mph 3.2 mph 80 % 0 in open2300-1.11 W/m2
05:10 66 °F 60.4 °F 30 in Calm   1.1 mph 82 % 0 in open2300-1.11 W/m2
06:10 65.7 °F 60.1 °F 30 in NNE 2.1 mph 2.1 mph 82 % 0 in open2300-1.11 W/m2
07:10 66.4 °F 60.6 °F 30 in Calm   2.6 mph 82 % 0 in open2300-1.11 W/m2
08:10 71.2 °F 64 °F 30 in Calm     78 % 0 in open2300-1.11 W/m2
09:10 72 °F 63.7 °F 30 in Calm   5.0 mph 75 % 0 in open2300-1.11 W/m2
10:10 76.1 °F 66.7 °F 30 in South 6.1 mph 6.1 mph 73 % 0 in open2300-1.11 W/m2
11:10 80.8 °F 67.8 °F 30 in South 3.5 mph 5.5 mph 65 % 0 in open2300-1.11 W/m2
12:10 83.1 °F 68.4 °F 30 in South 6.1 mph 11.6 mph 61 % 0 in open2300-1.11 W/m2
13:10 83.1 °F 67.8 °F 30 in SE 4.0 mph 5.0 mph 60 % 0 in open2300-1.11 W/m2
14:10 83.8 °F 67.5 °F 30 in South 5.0 mph 6.1 mph 58 % 0 in open2300-1.11 W/m2
15:10 83.1 °F 67.3 °F 29.9 in SE 3.2 mph 5.0 mph 59 % 0 in open2300-1.11 W/m2
16:10 82.2 °F 66.9 °F 29.9 in SE 5.0 mph 5.0 mph 60 % 0 in open2300-1.11 W/m2
17:10 81 °F 66.7 °F 29.9 in ESE 12.2 mph 12.2 mph 62 % 0 in open2300-1.11 W/m2
18:10 79.7 °F 66 °F 29.9 in Calm   12.2 mph 63 % 0 in open2300-1.11 W/m2
19:10 78.1 °F 65.3 °F 29.9 in SSE 3.5 mph 3.5 mph 65 % 0 in open2300-1.11 W/m2
20:11 76.5 °F 64.8 °F 29.9 in Calm     67 % 0 in open2300-1.11 W/m2
21:10 74.7 °F 64.2 °F 29.9 in Calm     70 % 0 in open2300-1.11 W/m2
22:10 71.8 °F 62.2 °F 29.9 in NNE 1.4 mph 1.8 mph 72 % 0 in open2300-1.11 W/m2
23:10 69.3 °F 61 °F 29.9 in North 2.1 mph 2.1 mph 75 % 0 in open2300-1.11 W/m2
Observations météo à CASSIS
WU-History script by Weather Underground - 1 mb